Adger, AL

6:35 AM CST on January 31, 2015 (GMT -0600)
Oak Grove | Change Station
CLOSE
Current Station
Personal Weather Station
Location: Bessemer, AL
Elevation: 371 ft
Nearby Weather Stations

Elev 371 ft 33.55 °N, 87.16 °W | Updated 38 seconds ago

Partly Cloudy
Partly Cloudy
26.1 °F
Feels Like 26 °F
N
0.0
Wind Variable Wind from WSW

Today
High -- | Low -- °F
--% Chance of Precip.
Yesterday
High -- | Low -- °F
Precip. -- in
6:45 AM 5:19 PM
Waxing Gibbous, 89% visible
Pressure 30.38 in
Visibility 10.0 miles
Clouds Scattered Clouds 25000 ft
Windchill 26 °F
Dew Point 25 °F
Humidity 96%
Rainfall 0.00 in
Snow Depth Not available.
UV 0 out of 12
Pollen 4.20 out of 12
Air Quality Not available.
Flu Activity Not available.
METAR KBHM 311153Z VRB05KT 10SM SCT250 02/M06 A3037 RMK AO2 SLP285 T00171061 10017 21033 53003

More Conditions Fewer Conditions

Pressure 30.38 in
Visibility 10.0 miles
Clouds Scattered Clouds 25000 ft
Windchill 26 °F
Dew Point 25 °F
Humidity 96%
Rainfall 0.00 in
Snow Depth Not available.
UV 0 out of 12
Pollen 4.20 out of 12
Air Quality Not available.
Flu Activity Not available.
METAR KBHM 311153Z VRB05KT 10SM SCT250 02/M06 A3037 RMK AO2 SLP285 T00171061 10017 21033 53003

More Conditions Fewer Conditions

10-Day Weather Forecast

Almanac

Astronomy

Jan. 31, 2015 Rise Set
Actual Time
Civil Twilight
Nautical Twilight
Astronomical Twilight
Moon
Length of Visible Light
Length of Day
Tomorrow will be .
, % of the Moon is Illuminated

Today's Extremes

State Highs State Lows

Community

WunderPhotos

Upload Photos

1,792,039 photos uploaded!

WunderBlogs® & News

Nearby

Air Quality

  Air Quality AQ Index Pollutant
Not available.

Snow Depth

Station Depth Elevation

Earthquake Activity

City Distance Mag. Time & Date
Minimum magnitude displayed is 2.5.

Coastal Water Temperatures

Place Temperature

Nearby Weather Stations